sensor_id;sensor_type;location;lat;lon;timestamp;temperature;humidity
37896;DHT22;23733;53.254;10.430;2022-08-02T00:01:39;16.20;99.90
37896;DHT22;23733;53.254;10.430;2022-08-02T00:04:05;16.20;99.90
37896;DHT22;23733;53.254;10.430;2022-08-02T00:06:31;16.10;99.90
37896;DHT22;23733;53.254;10.430;2022-08-02T00:08:58;16.10;99.90
37896;DHT22;23733;53.254;10.430;2022-08-02T00:11:24;16.10;99.90
37896;DHT22;23733;53.254;10.430;2022-08-02T00:13:50;16.00;99.90
37896;DHT22;23733;53.254;10.430;2022-08-02T00:16:16;16.00;99.90
37896;DHT22;23733;53.254;10.430;2022-08-02T00:18:43;15.90;99.90
37896;DHT22;23733;53.254;10.430;2022-08-02T00:21:09;15.90;99.90
37896;DHT22;23733;53.254;10.430;2022-08-02T00:23:35;15.90;99.90
37896;DHT22;23733;53.254;10.430;2022-08-02T00:26:01;15.90;99.90
37896;DHT22;23733;53.254;10.430;2022-08-02T00:28:28;15.80;99.90
37896;DHT22;23733;53.254;10.430;2022-08-02T00:30:56;15.80;99.90
37896;DHT22;23733;53.254;10.430;2022-08-02T00:33:22;15.70;99.90
37896;DHT22;23733;53.254;10.430;2022-08-02T00:35:48;15.70;99.90
37896;DHT22;23733;53.254;10.430;2022-08-02T00:38:14;15.60;99.90
37896;DHT22;23733;53.254;10.430;2022-08-02T00:40:46;15.60;99.90
37896;DHT22;23733;53.254;10.430;2022-08-02T00:43:12;15.50;99.90
37896;DHT22;23733;53.254;10.430;2022-08-02T00:45:40;15.50;99.90
37896;DHT22;23733;53.254;10.430;2022-08-02T00:48:07;15.40;99.90
37896;DHT22;23733;53.254;10.430;2022-08-02T00:50:35;15.40;99.90
37896;DHT22;23733;53.254;10.430;2022-08-02T00:53:01;15.40;99.90
37896;DHT22;23733;53.254;10.430;2022-08-02T00:55:27;15.30;99.90
37896;DHT22;23733;53.254;10.430;2022-08-02T00:57:53;15.30;99.90
37896;DHT22;23733;53.254;10.430;2022-08-02T01:00:20;15.20;99.90
37896;DHT22;23733;53.254;10.430;2022-08-02T01:02:46;15.20;99.90
37896;DHT22;23733;53.254;10.430;2022-08-02T01:05:13;15.20;99.90
37896;DHT22;23733;53.254;10.430;2022-08-02T01:07:39;15.20;99.90
37896;DHT22;23733;53.254;10.430;2022-08-02T01:10:06;15.20;99.90
37896;DHT22;23733;53.254;10.430;2022-08-02T01:12:33;15.20;99.90
37896;DHT22;23733;53.254;10.430;2022-08-02T01:15:03;15.10;99.90
37896;DHT22;23733;53.254;10.430;2022-08-02T01:17:44;15.10;99.90
37896;DHT22;23733;53.254;10.430;2022-08-02T01:20:24;15.10;99.90
37896;DHT22;23733;53.254;10.430;2022-08-02T01:23:13;15.10;99.90
37896;DHT22;23733;53.254;10.430;2022-08-02T01:26:08;15.10;99.90
37896;DHT22;23733;53.254;10.430;2022-08-02T01:29:02;15.00;99.90
37896;DHT22;23733;53.254;10.430;2022-08-02T01:34:19;15.00;99.90
37896;DHT22;23733;53.254;10.430;2022-08-02T01:36:57;14.90;99.90
37896;DHT22;23733;53.254;10.430;2022-08-02T01:39:26;14.90;99.90
37896;DHT22;23733;53.254;10.430;2022-08-02T01:41:54;14.80;99.90
37896;DHT22;23733;53.254;10.430;2022-08-02T01:44:22;14.70;99.90
37896;DHT22;23733;53.254;10.430;2022-08-02T01:46:49;14.70;99.90
37896;DHT22;23733;53.254;10.430;2022-08-02T01:49:19;14.70;99.90
37896;DHT22;23733;53.254;10.430;2022-08-02T01:51:48;14.70;99.90
37896;DHT22;23733;53.254;10.430;2022-08-02T01:54:34;14.70;99.90
37896;DHT22;23733;53.254;10.430;2022-08-02T01:57:04;14.70;99.90
37896;DHT22;23733;53.254;10.430;2022-08-02T01:59:31;14.60;99.90
37896;DHT22;23733;53.254;10.430;2022-08-02T02:02:00;14.60;99.90
37896;DHT22;23733;53.254;10.430;2022-08-02T02:04:28;14.60;99.90
37896;DHT22;23733;53.254;10.430;2022-08-02T02:06:56;14.60;99.90
37896;DHT22;23733;53.254;10.430;2022-08-02T02:09:25;14.50;99.90
37896;DHT22;23733;53.254;10.430;2022-08-02T02:11:53;14.50;99.90
37896;DHT22;23733;53.254;10.430;2022-08-02T02:14:21;14.50;99.90
37896;DHT22;23733;53.254;10.430;2022-08-02T02:16:47;14.50;99.90
37896;DHT22;23733;53.254;10.430;2022-08-02T02:19:17;14.40;99.90
37896;DHT22;23733;53.254;10.430;2022-08-02T02:21:45;14.40;99.90
37896;DHT22;23733;53.254;10.430;2022-08-02T02:24:11;14.40;99.90
37896;DHT22;23733;53.254;10.430;2022-08-02T02:26:38;14.30;99.90
37896;DHT22;23733;53.254;10.430;2022-08-02T02:29:06;14.30;99.90
37896;DHT22;23733;53.254;10.430;2022-08-02T02:31:39;14.30;99.90
37896;DHT22;23733;53.254;10.430;2022-08-02T02:34:11;14.30;99.90
37896;DHT22;23733;53.254;10.430;2022-08-02T02:46:29;14.20;99.90
37896;DHT22;23733;53.254;10.430;2022-08-02T02:48:56;14.00;99.90
37896;DHT22;23733;53.254;10.430;2022-08-02T02:51:23;14.00;99.90
37896;DHT22;23733;53.254;10.430;2022-08-02T02:53:50;14.00;99.90
37896;DHT22;23733;53.254;10.430;2022-08-02T02:56:17;14.00;99.90
37896;DHT22;23733;53.254;10.430;2022-08-02T02:58:44;13.90;99.90
37896;DHT22;23733;53.254;10.430;2022-08-02T03:01:12;13.90;99.90
37896;DHT22;23733;53.254;10.430;2022-08-02T03:03:54;13.90;99.90
37896;DHT22;23733;53.254;10.430;2022-08-02T03:06:21;13.90;99.90
37896;DHT22;23733;53.254;10.430;2022-08-02T03:08:47;13.80;99.90
37896;DHT22;23733;53.254;10.430;2022-08-02T03:11:13;13.80;99.90
37896;DHT22;23733;53.254;10.430;2022-08-02T03:13:39;13.80;99.90
37896;DHT22;23733;53.254;10.430;2022-08-02T03:16:06;13.70;99.90
37896;DHT22;23733;53.254;10.430;2022-08-02T03:18:39;13.60;99.90
37896;DHT22;23733;53.254;10.430;2022-08-02T03:21:08;13.60;99.90
37896;DHT22;23733;53.254;10.430;2022-08-02T03:23:37;13.60;99.90
37896;DHT22;23733;53.254;10.430;2022-08-02T03:26:03;13.60;99.90
37896;DHT22;23733;53.254;10.430;2022-08-02T03:28:29;13.50;99.90
37896;DHT22;23733;53.254;10.430;2022-08-02T03:30:55;13.50;99.90
37896;DHT22;23733;53.254;10.430;2022-08-02T03:33:23;13.50;99.90
37896;DHT22;23733;53.254;10.430;2022-08-02T03:35:53;13.50;99.90
37896;DHT22;23733;53.254;10.430;2022-08-02T03:38:22;13.50;99.90
37896;DHT22;23733;53.254;10.430;2022-08-02T03:40:48;13.50;99.90
37896;DHT22;23733;53.254;10.430;2022-08-02T03:43:15;13.50;99.90
37896;DHT22;23733;53.254;10.430;2022-08-02T03:45:44;13.40;99.90
37896;DHT22;23733;53.254;10.430;2022-08-02T03:48:13;13.40;99.90
37896;DHT22;23733;53.254;10.430;2022-08-02T03:50:40;13.40;99.90
37896;DHT22;23733;53.254;10.430;2022-08-02T03:53:07;13.40;99.90
37896;DHT22;23733;53.254;10.430;2022-08-02T03:55:34;13.30;99.90
37896;DHT22;23733;53.254;10.430;2022-08-02T03:58:01;13.30;99.90
37896;DHT22;23733;53.254;10.430;2022-08-02T05:36:32;13.30;99.90
37896;DHT22;23733;53.254;10.430;2022-08-02T05:38:58;13.40;99.90
37896;DHT22;23733;53.254;10.430;2022-08-02T05:41:24;13.50;99.90
37896;DHT22;23733;53.254;10.430;2022-08-02T05:43:50;13.60;99.90
37896;DHT22;23733;53.254;10.430;2022-08-02T05:46:16;13.70;99.90
37896;DHT22;23733;53.254;10.430;2022-08-02T05:48:43;13.70;99.90
37896;DHT22;23733;53.254;10.430;2022-08-02T05:51:12;13.90;99.90
37896;DHT22;23733;53.254;10.430;2022-08-02T05:56:23;14.00;99.90
37896;DHT22;23733;53.254;10.430;2022-08-02T05:59:03;14.10;99.90
37896;DHT22;23733;53.254;10.430;2022-08-02T06:01:34;14.20;99.90
37896;DHT22;23733;53.254;10.430;2022-08-02T06:04:05;14.30;99.90
37896;DHT22;23733;53.254;10.430;2022-08-02T06:06:33;14.30;99.90
37896;DHT22;23733;53.254;10.430;2022-08-02T06:09:02;14.40;99.90
37896;DHT22;23733;53.254;10.430;2022-08-02T06:11:43;14.50;99.90
37896;DHT22;23733;53.254;10.430;2022-08-02T06:14:10;14.50;99.90
37896;DHT22;23733;53.254;10.430;2022-08-02T06:16:38;14.60;99.90
37896;DHT22;23733;53.254;10.430;2022-08-02T06:19:04;14.70;99.90
37896;DHT22;23733;53.254;10.430;2022-08-02T06:21:31;14.80;99.90
37896;DHT22;23733;53.254;10.430;2022-08-02T06:23:57;14.90;99.90
37896;DHT22;23733;53.254;10.430;2022-08-02T06:26:24;14.90;99.90
37896;DHT22;23733;53.254;10.430;2022-08-02T06:28:52;15.00;99.90
37896;DHT22;23733;53.254;10.430;2022-08-02T06:31:19;15.10;99.90
37896;DHT22;23733;53.254;10.430;2022-08-02T06:33:45;15.10;99.90
37896;DHT22;23733;53.254;10.430;2022-08-02T06:36:31;15.20;99.90
37896;DHT22;23733;53.254;10.430;2022-08-02T06:39:03;15.40;99.90
37896;DHT22;23733;53.254;10.430;2022-08-02T06:41:38;15.40;99.90
37896;DHT22;23733;53.254;10.430;2022-08-02T06:44:07;15.60;99.90
37896;DHT22;23733;53.254;10.430;2022-08-02T06:46:33;15.60;99.90
37896;DHT22;23733;53.254;10.430;2022-08-02T06:49:01;15.80;99.90
37896;DHT22;23733;53.254;10.430;2022-08-02T06:51:27;15.80;99.90
37896;DHT22;23733;53.254;10.430;2022-08-02T06:53:53;15.90;99.90
37896;DHT22;23733;53.254;10.430;2022-08-02T06:56:20;16.00;99.90
37896;DHT22;23733;53.254;10.430;2022-08-02T06:58:46;16.00;99.90
37896;DHT22;23733;53.254;10.430;2022-08-02T07:01:12;16.10;99.90
37896;DHT22;23733;53.254;10.430;2022-08-02T07:03:39;16.20;99.90
37896;DHT22;23733;53.254;10.430;2022-08-02T07:06:06;16.30;99.90
37896;DHT22;23733;53.254;10.430;2022-08-02T07:08:34;16.30;99.90
37896;DHT22;23733;53.254;10.430;2022-08-02T07:11:04;16.40;99.90
37896;DHT22;23733;53.254;10.430;2022-08-02T07:13:30;16.40;99.90
37896;DHT22;23733;53.254;10.430;2022-08-02T07:15:56;16.50;99.90
37896;DHT22;23733;53.254;10.430;2022-08-02T07:18:23;16.50;99.90
37896;DHT22;23733;53.254;10.430;2022-08-02T07:20:50;16.60;99.90
37896;DHT22;23733;53.254;10.430;2022-08-02T07:23:16;16.70;99.90
37896;DHT22;23733;53.254;10.430;2022-08-02T07:25:44;16.70;99.90
37896;DHT22;23733;53.254;10.430;2022-08-02T07:28:10;16.80;99.90
37896;DHT22;23733;53.254;10.430;2022-08-02T07:30:37;16.90;99.90
37896;DHT22;23733;53.254;10.430;2022-08-02T07:33:03;17.00;99.90
37896;DHT22;23733;53.254;10.430;2022-08-02T07:35:30;17.10;99.90
37896;DHT22;23733;53.254;10.430;2022-08-02T07:37:56;17.20;99.90
37896;DHT22;23733;53.254;10.430;2022-08-02T07:40:23;17.20;99.90
37896;DHT22;23733;53.254;10.430;2022-08-02T07:42:51;17.20;99.90
37896;DHT22;23733;53.254;10.430;2022-08-02T07:45:18;17.40;99.90
37896;DHT22;23733;53.254;10.430;2022-08-02T07:47:45;17.50;99.90
37896;DHT22;23733;53.254;10.430;2022-08-02T07:50:12;17.50;99.90
37896;DHT22;23733;53.254;10.430;2022-08-02T07:52:40;17.60;99.90
37896;DHT22;23733;53.254;10.430;2022-08-02T07:55:07;17.60;99.90
37896;DHT22;23733;53.254;10.430;2022-08-02T07:57:33;17.70;99.90
37896;DHT22;23733;53.254;10.430;2022-08-02T07:59:59;17.80;99.90
37896;DHT22;23733;53.254;10.430;2022-08-02T08:02:25;17.90;99.90
37896;DHT22;23733;53.254;10.430;2022-08-02T08:04:52;18.00;99.90
37896;DHT22;23733;53.254;10.430;2022-08-02T08:07:18;18.20;99.90
37896;DHT22;23733;53.254;10.430;2022-08-02T08:09:45;18.30;99.90
37896;DHT22;23733;53.254;10.430;2022-08-02T08:12:12;18.30;99.90
37896;DHT22;23733;53.254;10.430;2022-08-02T08:14:38;18.40;99.90
37896;DHT22;23733;53.254;10.430;2022-08-02T08:19:31;18.50;99.90
37896;DHT22;23733;53.254;10.430;2022-08-02T08:21:57;18.70;99.90
37896;DHT22;23733;53.254;10.430;2022-08-02T08:24:27;18.80;99.90
37896;DHT22;23733;53.254;10.430;2022-08-02T08:26:53;18.90;99.90
37896;DHT22;23733;53.254;10.430;2022-08-02T08:29:19;18.90;99.90
37896;DHT22;23733;53.254;10.430;2022-08-02T08:31:46;19.00;99.90
37896;DHT22;23733;53.254;10.430;2022-08-02T08:34:12;19.10;99.90
37896;DHT22;23733;53.254;10.430;2022-08-02T08:36:39;19.20;99.90
37896;DHT22;23733;53.254;10.430;2022-08-02T08:39:06;19.20;99.90
37896;DHT22;23733;53.254;10.430;2022-08-02T08:41:32;19.30;99.90
37896;DHT22;23733;53.254;10.430;2022-08-02T08:43:58;19.40;99.90
37896;DHT22;23733;53.254;10.430;2022-08-02T08:46:25;19.40;99.90
37896;DHT22;23733;53.254;10.430;2022-08-02T08:48:55;19.50;99.90
37896;DHT22;23733;53.254;10.430;2022-08-02T08:51:24;19.50;99.90
37896;DHT22;23733;53.254;10.430;2022-08-02T08:53:53;19.60;99.90
37896;DHT22;23733;53.254;10.430;2022-08-02T08:56:22;19.70;99.90
37896;DHT22;23733;53.254;10.430;2022-08-02T08:58:48;19.90;99.90
37896;DHT22;23733;53.254;10.430;2022-08-02T09:01:14;19.90;99.90
37896;DHT22;23733;53.254;10.430;2022-08-02T09:03:42;20.10;99.90
37896;DHT22;23733;53.254;10.430;2022-08-02T09:06:08;20.10;99.90
37896;DHT22;23733;53.254;10.430;2022-08-02T09:08:34;20.30;99.90
37896;DHT22;23733;53.254;10.430;2022-08-02T09:11:00;20.50;99.90
37896;DHT22;23733;53.254;10.430;2022-08-02T09:13:36;20.60;99.90
37896;DHT22;23733;53.254;10.430;2022-08-02T09:16:04;20.70;99.90
37896;DHT22;23733;53.254;10.430;2022-08-02T09:18:36;20.90;99.90
37896;DHT22;23733;53.254;10.430;2022-08-02T09:21:05;21.00;99.90
37896;DHT22;23733;53.254;10.430;2022-08-02T09:23:35;21.20;99.90
37896;DHT22;23733;53.254;10.430;2022-08-02T09:26:07;21.20;99.90
37896;DHT22;23733;53.254;10.430;2022-08-02T09:28:36;21.20;99.90
37896;DHT22;23733;53.254;10.430;2022-08-02T09:33:33;21.20;99.90
37896;DHT22;23733;53.254;10.430;2022-08-02T09:36:02;21.30;99.90
37896;DHT22;23733;53.254;10.430;2022-08-02T09:38:28;21.30;99.90
37896;DHT22;23733;53.254;10.430;2022-08-02T09:40:55;21.40;99.90
37896;DHT22;23733;53.254;10.430;2022-08-02T09:43:22;21.50;99.90
37896;DHT22;23733;53.254;10.430;2022-08-02T09:45:58;21.50;99.90
37896;DHT22;23733;53.254;10.430;2022-08-02T09:48:24;21.40;99.90
37896;DHT22;23733;53.254;10.430;2022-08-02T09:50:55;21.60;99.90
37896;DHT22;23733;53.254;10.430;2022-08-02T09:53:22;21.70;99.90
37896;DHT22;23733;53.254;10.430;2022-08-02T09:55:54;21.80;99.90
37896;DHT22;23733;53.254;10.430;2022-08-02T09:58:21;22.00;99.90
37896;DHT22;23733;53.254;10.430;2022-08-02T10:00:54;22.10;99.90
37896;DHT22;23733;53.254;10.430;2022-08-02T10:03:20;22.20;99.90
37896;DHT22;23733;53.254;10.430;2022-08-02T10:05:52;22.30;99.90
37896;DHT22;23733;53.254;10.430;2022-08-02T10:08:24;22.30;99.90
37896;DHT22;23733;53.254;10.430;2022-08-02T10:10:51;22.50;99.90
37896;DHT22;23733;53.254;10.430;2022-08-02T10:13:33;22.50;99.90
37896;DHT22;23733;53.254;10.430;2022-08-02T10:15:59;22.70;99.90
37896;DHT22;23733;53.254;10.430;2022-08-02T10:18:28;22.80;99.90
37896;DHT22;23733;53.254;10.430;2022-08-02T10:20:55;22.80;99.90
37896;DHT22;23733;53.254;10.430;2022-08-02T10:23:25;22.90;99.90
37896;DHT22;23733;53.254;10.430;2022-08-02T10:25:53;23.00;99.90
37896;DHT22;23733;53.254;10.430;2022-08-02T10:28:25;23.20;99.90
37896;DHT22;23733;53.254;10.430;2022-08-02T10:30:54;23.40;99.90
37896;DHT22;23733;53.254;10.430;2022-08-02T10:33:22;23.40;99.90
37896;DHT22;23733;53.254;10.430;2022-08-02T10:35:52;23.50;99.90
37896;DHT22;23733;53.254;10.430;2022-08-02T10:38:19;23.30;99.90
37896;DHT22;23733;53.254;10.430;2022-08-02T10:40:52;23.30;99.90
37896;DHT22;23733;53.254;10.430;2022-08-02T10:46:23;23.50;99.90
37896;DHT22;23733;53.254;10.430;2022-08-02T10:54:25;23.80;99.90
37896;DHT22;23733;53.254;10.430;2022-08-02T10:56:53;23.80;99.90
37896;DHT22;23733;53.254;10.430;2022-08-02T10:59:34;23.80;99.90
37896;DHT22;23733;53.254;10.430;2022-08-02T11:02:03;23.90;99.90
37896;DHT22;23733;53.254;10.430;2022-08-02T11:04:32;23.90;99.90
37896;DHT22;23733;53.254;10.430;2022-08-02T11:07:35;24.10;99.90
37896;DHT22;23733;53.254;10.430;2022-08-02T11:13:12;24.40;99.90
37896;DHT22;23733;53.254;10.430;2022-08-02T11:15:50;24.50;99.90
37896;DHT22;23733;53.254;10.430;2022-08-02T11:18:17;24.50;99.90
37896;DHT22;23733;53.254;10.430;2022-08-02T11:20:43;24.60;99.90
37896;DHT22;23733;53.254;10.430;2022-08-02T11:23:47;24.70;99.90
37896;DHT22;23733;53.254;10.430;2022-08-02T11:28:58;24.80;99.90
37896;DHT22;23733;53.254;10.430;2022-08-02T11:31:25;24.80;99.90
37896;DHT22;23733;53.254;10.430;2022-08-02T11:33:51;24.90;99.90
37896;DHT22;23733;53.254;10.430;2022-08-02T11:36:18;24.90;99.90
37896;DHT22;23733;53.254;10.430;2022-08-02T11:38:44;25.00;99.90
37896;DHT22;23733;53.254;10.430;2022-08-02T11:41:23;25.00;99.90
37896;DHT22;23733;53.254;10.430;2022-08-02T11:43:55;25.00;99.90
37896;DHT22;23733;53.254;10.430;2022-08-02T11:46:21;25.10;99.90
37896;DHT22;23733;53.254;10.430;2022-08-02T11:48:47;25.20;99.90
37896;DHT22;23733;53.254;10.430;2022-08-02T11:51:15;25.20;99.90
37896;DHT22;23733;53.254;10.430;2022-08-02T11:53:49;25.30;99.90
37896;DHT22;23733;53.254;10.430;2022-08-02T11:56:17;25.40;99.90
37896;DHT22;23733;53.254;10.430;2022-08-02T11:59:06;25.30;99.90
37896;DHT22;23733;53.254;10.430;2022-08-02T12:01:37;25.40;99.90
37896;DHT22;23733;53.254;10.430;2022-08-02T12:04:05;25.40;99.90
37896;DHT22;23733;53.254;10.430;2022-08-02T12:06:32;25.40;99.90
37896;DHT22;23733;53.254;10.430;2022-08-02T12:09:05;25.50;99.90
37896;DHT22;23733;53.254;10.430;2022-08-02T12:11:32;25.70;99.90
37896;DHT22;23733;53.254;10.430;2022-08-02T12:13:59;25.70;99.90
37896;DHT22;23733;53.254;10.430;2022-08-02T12:16:33;25.70;99.90
37896;DHT22;23733;53.254;10.430;2022-08-02T12:19:19;25.80;99.90
37896;DHT22;23733;53.254;10.430;2022-08-02T12:21:48;25.90;99.90
37896;DHT22;23733;53.254;10.430;2022-08-02T12:24:31;26.00;99.90
37896;DHT22;23733;53.254;10.430;2022-08-02T12:26:57;26.10;99.90
37896;DHT22;23733;53.254;10.430;2022-08-02T12:29:34;26.00;99.90
37896;DHT22;23733;53.254;10.430;2022-08-02T12:32:00;26.10;99.90
37896;DHT22;23733;53.254;10.430;2022-08-02T12:34:28;26.20;99.90
37896;DHT22;23733;53.254;10.430;2022-08-02T12:37:09;26.30;99.90
37896;DHT22;23733;53.254;10.430;2022-08-02T12:39:43;26.30;99.90
37896;DHT22;23733;53.254;10.430;2022-08-02T12:42:13;26.50;99.90
37896;DHT22;23733;53.254;10.430;2022-08-02T12:44:54;26.30;99.90
37896;DHT22;23733;53.254;10.430;2022-08-02T12:47:21;26.40;99.90
37896;DHT22;23733;53.254;10.430;2022-08-02T12:50:16;26.40;99.90
37896;DHT22;23733;53.254;10.430;2022-08-02T12:52:42;26.30;99.90
37896;DHT22;23733;53.254;10.430;2022-08-02T12:55:19;26.30;99.90
37896;DHT22;23733;53.254;10.430;2022-08-02T12:58:11;26.40;99.90
37896;DHT22;23733;53.254;10.430;2022-08-02T13:00:38;26.40;99.90
37896;DHT22;23733;53.254;10.430;2022-08-02T13:03:05;26.40;99.90
37896;DHT22;23733;53.254;10.430;2022-08-02T13:05:33;26.50;99.90
37896;DHT22;23733;53.254;10.430;2022-08-02T13:08:01;26.60;99.90
37896;DHT22;23733;53.254;10.430;2022-08-02T13:10:28;26.60;99.90
37896;DHT22;23733;53.254;10.430;2022-08-02T13:12:54;26.50;99.90
37896;DHT22;23733;53.254;10.430;2022-08-02T13:15:21;26.40;99.90
37896;DHT22;23733;53.254;10.430;2022-08-02T13:17:47;26.40;99.90
37896;DHT22;23733;53.254;10.430;2022-08-02T13:20:14;26.50;99.90
37896;DHT22;23733;53.254;10.430;2022-08-02T13:22:40;26.70;99.90
37896;DHT22;23733;53.254;10.430;2022-08-02T13:25:07;26.70;99.90
37896;DHT22;23733;53.254;10.430;2022-08-02T13:27:33;26.70;99.90
37896;DHT22;23733;53.254;10.430;2022-08-02T13:30:00;26.80;99.90
37896;DHT22;23733;53.254;10.430;2022-08-02T13:32:26;26.80;99.90
37896;DHT22;23733;53.254;10.430;2022-08-02T13:34:54;26.70;99.90
37896;DHT22;23733;53.254;10.430;2022-08-02T13:37:21;26.70;99.90
37896;DHT22;23733;53.254;10.430;2022-08-02T13:39:47;26.80;99.90
37896;DHT22;23733;53.254;10.430;2022-08-02T13:42:13;26.80;99.90
37896;DHT22;23733;53.254;10.430;2022-08-02T13:44:39;26.80;99.90
37896;DHT22;23733;53.254;10.430;2022-08-02T13:47:05;26.70;99.90
37896;DHT22;23733;53.254;10.430;2022-08-02T13:49:33;26.60;99.90
37896;DHT22;23733;53.254;10.430;2022-08-02T13:51:59;26.60;99.90
37896;DHT22;23733;53.254;10.430;2022-08-02T13:54:25;26.60;99.90
37896;DHT22;23733;53.254;10.430;2022-08-02T13:56:51;26.40;99.90
37896;DHT22;23733;53.254;10.430;2022-08-02T13:59:17;26.30;99.90
37896;DHT22;23733;53.254;10.430;2022-08-02T14:01:43;26.30;99.90
37896;DHT22;23733;53.254;10.430;2022-08-02T14:04:10;26.40;99.90
37896;DHT22;23733;53.254;10.430;2022-08-02T14:06:36;26.50;99.90
37896;DHT22;23733;53.254;10.430;2022-08-02T14:09:03;26.40;99.90
37896;DHT22;23733;53.254;10.430;2022-08-02T14:11:29;26.40;99.90
37896;DHT22;23733;53.254;10.430;2022-08-02T14:13:56;26.40;99.90
37896;DHT22;23733;53.254;10.430;2022-08-02T14:16:22;26.30;99.90
37896;DHT22;23733;53.254;10.430;2022-08-02T14:18:48;26.30;99.90
37896;DHT22;23733;53.254;10.430;2022-08-02T14:21:14;26.40;99.90
37896;DHT22;23733;53.254;10.430;2022-08-02T14:23:40;26.40;99.90
37896;DHT22;23733;53.254;10.430;2022-08-02T14:26:06;26.50;99.90
37896;DHT22;23733;53.254;10.430;2022-08-02T14:28:35;26.50;99.90
37896;DHT22;23733;53.254;10.430;2022-08-02T14:31:02;26.60;99.90
37896;DHT22;23733;53.254;10.430;2022-08-02T14:33:28;26.60;99.90
37896;DHT22;23733;53.254;10.430;2022-08-02T14:35:54;26.60;99.90
37896;DHT22;23733;53.254;10.430;2022-08-02T14:38:22;26.60;99.90
37896;DHT22;23733;53.254;10.430;2022-08-02T14:40:49;26.50;99.90
37896;DHT22;23733;53.254;10.430;2022-08-02T14:43:15;26.40;99.90
37896;DHT22;23733;53.254;10.430;2022-08-02T14:46:00;26.40;99.90
37896;DHT22;23733;53.254;10.430;2022-08-02T14:48:27;26.40;99.90
37896;DHT22;23733;53.254;10.430;2022-08-02T14:50:54;26.50;99.90
37896;DHT22;23733;53.254;10.430;2022-08-02T14:53:20;26.40;99.90
37896;DHT22;23733;53.254;10.430;2022-08-02T14:55:46;26.40;99.90
37896;DHT22;23733;53.254;10.430;2022-08-02T14:58:12;26.40;99.90
37896;DHT22;23733;53.254;10.430;2022-08-02T15:00:39;26.30;99.90
37896;DHT22;23733;53.254;10.430;2022-08-02T15:03:05;26.30;99.90
37896;DHT22;23733;53.254;10.430;2022-08-02T15:05:31;26.40;99.90
37896;DHT22;23733;53.254;10.430;2022-08-02T15:07:57;26.40;99.90
37896;DHT22;23733;53.254;10.430;2022-08-02T15:10:23;26.40;99.90
37896;DHT22;23733;53.254;10.430;2022-08-02T15:12:49;26.50;99.90
37896;DHT22;23733;53.254;10.430;2022-08-02T15:15:15;26.50;99.90
37896;DHT22;23733;53.254;10.430;2022-08-02T15:17:41;26.40;99.90
37896;DHT22;23733;53.254;10.430;2022-08-02T15:20:07;26.30;99.90
37896;DHT22;23733;53.254;10.430;2022-08-02T15:22:33;26.40;99.90
37896;DHT22;23733;53.254;10.430;2022-08-02T15:24:59;26.40;99.90
37896;DHT22;23733;53.254;10.430;2022-08-02T15:27:25;26.30;99.90
37896;DHT22;23733;53.254;10.430;2022-08-02T15:29:51;26.30;99.90
37896;DHT22;23733;53.254;10.430;2022-08-02T15:32:17;26.40;99.90
37896;DHT22;23733;53.254;10.430;2022-08-02T15:34:44;26.30;99.90
37896;DHT22;23733;53.254;10.430;2022-08-02T15:37:11;26.30;99.90
37896;DHT22;23733;53.254;10.430;2022-08-02T15:39:37;26.30;99.90
37896;DHT22;23733;53.254;10.430;2022-08-02T15:42:03;26.30;99.90
37896;DHT22;23733;53.254;10.430;2022-08-02T15:44:30;26.40;99.90
37896;DHT22;23733;53.254;10.430;2022-08-02T15:46:56;26.40;99.90
37896;DHT22;23733;53.254;10.430;2022-08-02T15:49:22;26.40;99.90
37896;DHT22;23733;53.254;10.430;2022-08-02T15:51:50;26.40;99.90
37896;DHT22;23733;53.254;10.430;2022-08-02T15:54:16;26.30;99.90
37896;DHT22;23733;53.254;10.430;2022-08-02T15:56:42;26.40;99.90
37896;DHT22;23733;53.254;10.430;2022-08-02T15:59:08;26.30;99.90
37896;DHT22;23733;53.254;10.430;2022-08-02T16:01:34;26.30;99.90
37896;DHT22;23733;53.254;10.430;2022-08-02T16:04:00;26.30;99.90
37896;DHT22;23733;53.254;10.430;2022-08-02T16:06:26;26.30;99.90
37896;DHT22;23733;53.254;10.430;2022-08-02T16:08:52;26.20;99.90
37896;DHT22;23733;53.254;10.430;2022-08-02T16:11:18;26.30;99.90
37896;DHT22;23733;53.254;10.430;2022-08-02T16:13:44;26.30;99.90
37896;DHT22;23733;53.254;10.430;2022-08-02T16:16:19;26.30;99.90
37896;DHT22;23733;53.254;10.430;2022-08-02T16:18:46;26.30;99.90
37896;DHT22;23733;53.254;10.430;2022-08-02T16:21:12;26.30;99.90
37896;DHT22;23733;53.254;10.430;2022-08-02T16:23:38;26.30;99.90
37896;DHT22;23733;53.254;10.430;2022-08-02T16:26:04;26.30;99.90
37896;DHT22;23733;53.254;10.430;2022-08-02T16:28:30;26.30;99.90
37896;DHT22;23733;53.254;10.430;2022-08-02T16:30:56;26.30;99.90
37896;DHT22;23733;53.254;10.430;2022-08-02T16:33:22;26.30;99.90
37896;DHT22;23733;53.254;10.430;2022-08-02T16:35:48;26.30;99.90
37896;DHT22;23733;53.254;10.430;2022-08-02T16:38:14;26.30;99.90
37896;DHT22;23733;53.254;10.430;2022-08-02T16:40:40;26.30;99.90
37896;DHT22;23733;53.254;10.430;2022-08-02T16:43:06;26.30;99.90
37896;DHT22;23733;53.254;10.430;2022-08-02T16:45:32;26.30;99.90
37896;DHT22;23733;53.254;10.430;2022-08-02T16:47:58;26.30;99.90
37896;DHT22;23733;53.254;10.430;2022-08-02T16:50:25;26.30;99.90
37896;DHT22;23733;53.254;10.430;2022-08-02T16:52:52;26.30;99.90
37896;DHT22;23733;53.254;10.430;2022-08-02T16:55:18;26.20;99.90
37896;DHT22;23733;53.254;10.430;2022-08-02T16:57:44;26.20;99.90
37896;DHT22;23733;53.254;10.430;2022-08-02T17:00:11;26.20;99.90
37896;DHT22;23733;53.254;10.430;2022-08-02T17:02:37;26.20;99.90
37896;DHT22;23733;53.254;10.430;2022-08-02T17:05:05;26.20;99.90
37896;DHT22;23733;53.254;10.430;2022-08-02T17:07:32;26.20;99.90
37896;DHT22;23733;53.254;10.430;2022-08-02T17:09:58;26.20;99.90
37896;DHT22;23733;53.254;10.430;2022-08-02T17:12:24;26.20;99.90
37896;DHT22;23733;53.254;10.430;2022-08-02T17:14:50;26.10;99.90
37896;DHT22;23733;53.254;10.430;2022-08-02T17:17:16;26.10;99.90
37896;DHT22;23733;53.254;10.430;2022-08-02T17:19:43;26.10;99.90
37896;DHT22;23733;53.254;10.430;2022-08-02T17:22:09;26.10;99.90
37896;DHT22;23733;53.254;10.430;2022-08-02T17:24:35;26.00;99.90
37896;DHT22;23733;53.254;10.430;2022-08-02T17:27:01;26.00;99.90
37896;DHT22;23733;53.254;10.430;2022-08-02T17:29:27;26.00;99.90
37896;DHT22;23733;53.254;10.430;2022-08-02T17:31:53;26.00;99.90
37896;DHT22;23733;53.254;10.430;2022-08-02T17:34:19;26.00;99.90